sensor_id;sensor_type;location;lat;lon;timestamp;temperature;humidity
17489;DHT22;8861;52.644;4.734;2024-03-02T00:00:16;8.30;99.90
17489;DHT22;8861;52.644;4.734;2024-03-02T00:02:48;8.30;99.90
17489;DHT22;8861;52.644;4.734;2024-03-02T00:05:16;8.30;99.90
17489;DHT22;8861;52.644;4.734;2024-03-02T00:07:46;8.40;99.90
17489;DHT22;8861;52.644;4.734;2024-03-02T00:10:16;8.40;99.90
17489;DHT22;8861;52.644;4.734;2024-03-02T00:12:47;8.40;99.90
17489;DHT22;8861;52.644;4.734;2024-03-02T00:15:44;8.50;99.90
17489;DHT22;8861;52.644;4.734;2024-03-02T00:18:18;8.50;99.90
17489;DHT22;8861;52.644;4.734;2024-03-02T00:20:46;8.60;99.90
17489;DHT22;8861;52.644;4.734;2024-03-02T00:23:15;8.50;99.90
17489;DHT22;8861;52.644;4.734;2024-03-02T00:25:43;8.50;99.90
17489;DHT22;8861;52.644;4.734;2024-03-02T00:28:14;8.40;99.90
17489;DHT22;8861;52.644;4.734;2024-03-02T00:30:59;8.30;99.90
17489;DHT22;8861;52.644;4.734;2024-03-02T00:33:32;8.20;99.90
17489;DHT22;8861;52.644;4.734;2024-03-02T00:35:59;8.20;99.90
17489;DHT22;8861;52.644;4.734;2024-03-02T00:38:26;8.10;99.90
17489;DHT22;8861;52.644;4.734;2024-03-02T00:40:54;8.00;99.90
17489;DHT22;8861;52.644;4.734;2024-03-02T00:43:56;7.90;99.90
17489;DHT22;8861;52.644;4.734;2024-03-02T00:46:23;7.70;99.90
17489;DHT22;8861;52.644;4.734;2024-03-02T00:49:11;7.60;99.90
17489;DHT22;8861;52.644;4.734;2024-03-02T00:51:39;7.50;99.90
17489;DHT22;8861;52.644;4.734;2024-03-02T00:54:09;7.50;99.90
17489;DHT22;8861;52.644;4.734;2024-03-02T00:56:37;7.40;99.90
17489;DHT22;8861;52.644;4.734;2024-03-02T00:59:04;7.40;99.90
17489;DHT22;8861;52.644;4.734;2024-03-02T01:01:32;7.30;99.90
17489;DHT22;8861;52.644;4.734;2024-03-02T01:03:59;7.30;99.90
17489;DHT22;8861;52.644;4.734;2024-03-02T01:06:27;7.30;99.90
17489;DHT22;8861;52.644;4.734;2024-03-02T01:08:54;7.30;99.90
17489;DHT22;8861;52.644;4.734;2024-03-02T01:11:21;7.20;99.90
17489;DHT22;8861;52.644;4.734;2024-03-02T01:13:48;7.20;99.90
17489;DHT22;8861;52.644;4.734;2024-03-02T01:16:15;7.20;99.90
17489;DHT22;8861;52.644;4.734;2024-03-02T01:18:42;7.10;99.90
17489;DHT22;8861;52.644;4.734;2024-03-02T01:21:09;7.10;99.90
17489;DHT22;8861;52.644;4.734;2024-03-02T01:23:38;7.10;99.90
17489;DHT22;8861;52.644;4.734;2024-03-02T01:26:05;7.10;99.90
17489;DHT22;8861;52.644;4.734;2024-03-02T01:28:32;7.10;99.90
17489;DHT22;8861;52.644;4.734;2024-03-02T01:30:59;7.10;99.90
17489;DHT22;8861;52.644;4.734;2024-03-02T01:33:27;7.10;99.90
17489;DHT22;8861;52.644;4.734;2024-03-02T01:35:54;7.00;99.90
17489;DHT22;8861;52.644;4.734;2024-03-02T01:38:21;6.90;99.90
17489;DHT22;8861;52.644;4.734;2024-03-02T01:40:50;6.90;99.90
17489;DHT22;8861;52.644;4.734;2024-03-02T01:43:17;6.90;99.90
17489;DHT22;8861;52.644;4.734;2024-03-02T01:45:44;6.90;99.90
17489;DHT22;8861;52.644;4.734;2024-03-02T01:48:11;6.90;99.90
17489;DHT22;8861;52.644;4.734;2024-03-02T01:50:38;6.80;99.90
17489;DHT22;8861;52.644;4.734;2024-03-02T01:53:05;6.80;99.90
17489;DHT22;8861;52.644;4.734;2024-03-02T01:55:32;6.70;99.90
17489;DHT22;8861;52.644;4.734;2024-03-02T01:58:01;6.70;99.90
17489;DHT22;8861;52.644;4.734;2024-03-02T02:00:28;6.70;99.90
17489;DHT22;8861;52.644;4.734;2024-03-02T02:02:55;6.70;99.90
17489;DHT22;8861;52.644;4.734;2024-03-02T02:05:23;6.70;99.90
17489;DHT22;8861;52.644;4.734;2024-03-02T02:07:50;6.60;99.90
17489;DHT22;8861;52.644;4.734;2024-03-02T02:10:17;6.60;99.90
17489;DHT22;8861;52.644;4.734;2024-03-02T02:12:44;6.60;99.90
17489;DHT22;8861;52.644;4.734;2024-03-02T02:15:28;6.50;99.90
17489;DHT22;8861;52.644;4.734;2024-03-02T02:17:56;6.50;99.90
17489;DHT22;8861;52.644;4.734;2024-03-02T02:20:23;6.50;99.90
17489;DHT22;8861;52.644;4.734;2024-03-02T02:22:57;6.50;99.90
17489;DHT22;8861;52.644;4.734;2024-03-02T02:25:24;6.40;99.90
17489;DHT22;8861;52.644;4.734;2024-03-02T02:27:51;6.40;99.90
17489;DHT22;8861;52.644;4.734;2024-03-02T02:30:22;6.40;99.90
17489;DHT22;8861;52.644;4.734;2024-03-02T02:32:50;6.40;99.90
17489;DHT22;8861;52.644;4.734;2024-03-02T02:35:17;6.30;99.90
17489;DHT22;8861;52.644;4.734;2024-03-02T02:37:44;6.30;99.90
17489;DHT22;8861;52.644;4.734;2024-03-02T02:40:13;6.20;99.90
17489;DHT22;8861;52.644;4.734;2024-03-02T02:42:40;6.20;99.90
17489;DHT22;8861;52.644;4.734;2024-03-02T02:45:08;6.20;99.90
17489;DHT22;8861;52.644;4.734;2024-03-02T02:47:36;6.20;99.90
17489;DHT22;8861;52.644;4.734;2024-03-02T02:50:04;6.20;99.90
17489;DHT22;8861;52.644;4.734;2024-03-02T02:52:32;6.20;99.90
17489;DHT22;8861;52.644;4.734;2024-03-02T02:55:02;6.30;99.90
17489;DHT22;8861;52.644;4.734;2024-03-02T02:57:31;6.30;99.90
17489;DHT22;8861;52.644;4.734;2024-03-02T03:00:02;6.30;99.90
17489;DHT22;8861;52.644;4.734;2024-03-02T03:02:36;6.30;99.90
17489;DHT22;8861;52.644;4.734;2024-03-02T03:05:04;6.40;99.90
17489;DHT22;8861;52.644;4.734;2024-03-02T03:07:31;6.40;99.90
17489;DHT22;8861;52.644;4.734;2024-03-02T03:09:58;6.40;99.90
17489;DHT22;8861;52.644;4.734;2024-03-02T03:12:25;6.50;99.90
17489;DHT22;8861;52.644;4.734;2024-03-02T03:14:54;6.50;99.90
17489;DHT22;8861;52.644;4.734;2024-03-02T03:17:21;6.50;99.90
17489;DHT22;8861;52.644;4.734;2024-03-02T03:19:49;6.60;99.90
17489;DHT22;8861;52.644;4.734;2024-03-02T03:22:16;6.50;99.90
17489;DHT22;8861;52.644;4.734;2024-03-02T03:24:43;6.60;99.90
17489;DHT22;8861;52.644;4.734;2024-03-02T03:27:10;6.60;99.90
17489;DHT22;8861;52.644;4.734;2024-03-02T03:29:37;6.60;99.90
17489;DHT22;8861;52.644;4.734;2024-03-02T03:32:06;6.60;99.90
17489;DHT22;8861;52.644;4.734;2024-03-02T03:34:34;6.70;99.90
17489;DHT22;8861;52.644;4.734;2024-03-02T03:37:01;6.70;99.90
17489;DHT22;8861;52.644;4.734;2024-03-02T03:39:28;6.70;99.90
17489;DHT22;8861;52.644;4.734;2024-03-02T03:41:55;6.70;99.90
17489;DHT22;8861;52.644;4.734;2024-03-02T03:44:22;6.80;99.90
17489;DHT22;8861;52.644;4.734;2024-03-02T03:46:49;6.80;99.90
17489;DHT22;8861;52.644;4.734;2024-03-02T03:49:18;6.90;99.90
17489;DHT22;8861;52.644;4.734;2024-03-02T03:51:45;6.90;99.90
17489;DHT22;8861;52.644;4.734;2024-03-02T03:54:12;6.90;99.90
17489;DHT22;8861;52.644;4.734;2024-03-02T03:56:39;6.90;99.90
17489;DHT22;8861;52.644;4.734;2024-03-02T03:59:06;6.90;99.90
17489;DHT22;8861;52.644;4.734;2024-03-02T04:01:33;6.90;99.90
17489;DHT22;8861;52.644;4.734;2024-03-02T04:04:00;6.90;99.90
17489;DHT22;8861;52.644;4.734;2024-03-02T04:06:31;6.90;99.90
17489;DHT22;8861;52.644;4.734;2024-03-02T04:08:58;6.90;99.90
17489;DHT22;8861;52.644;4.734;2024-03-02T04:11:25;6.90;99.90
17489;DHT22;8861;52.644;4.734;2024-03-02T04:13:52;6.80;99.90
17489;DHT22;8861;52.644;4.734;2024-03-02T04:16:19;6.70;99.90
17489;DHT22;8861;52.644;4.734;2024-03-02T04:18:46;6.60;99.90
17489;DHT22;8861;52.644;4.734;2024-03-02T04:21:12;6.60;99.90
17489;DHT22;8861;52.644;4.734;2024-03-02T04:23:41;6.60;99.90
17489;DHT22;8861;52.644;4.734;2024-03-02T04:26:08;6.50;99.90
17489;DHT22;8861;52.644;4.734;2024-03-02T04:28:35;6.50;99.90
17489;DHT22;8861;52.644;4.734;2024-03-02T04:31:01;6.50;99.90
17489;DHT22;8861;52.644;4.734;2024-03-02T04:33:29;6.40;99.90
17489;DHT22;8861;52.644;4.734;2024-03-02T04:35:56;6.40;99.90
17489;DHT22;8861;52.644;4.734;2024-03-02T04:38:23;6.40;99.90
17489;DHT22;8861;52.644;4.734;2024-03-02T04:40:51;6.40;99.90
17489;DHT22;8861;52.644;4.734;2024-03-02T04:43:18;6.40;99.90
17489;DHT22;8861;52.644;4.734;2024-03-02T04:45:45;6.40;99.90
17489;DHT22;8861;52.644;4.734;2024-03-02T04:48:12;6.40;99.90
17489;DHT22;8861;52.644;4.734;2024-03-02T04:50:40;6.30;99.90
17489;DHT22;8861;52.644;4.734;2024-03-02T04:53:07;6.30;99.90
17489;DHT22;8861;52.644;4.734;2024-03-02T04:55:34;6.30;99.90
17489;DHT22;8861;52.644;4.734;2024-03-02T04:58:46;6.30;99.90
17489;DHT22;8861;52.644;4.734;2024-03-02T05:01:13;6.20;99.90
17489;DHT22;8861;52.644;4.734;2024-03-02T05:03:42;6.20;99.90
17489;DHT22;8861;52.644;4.734;2024-03-02T05:06:09;6.10;99.90
17489;DHT22;8861;52.644;4.734;2024-03-02T05:08:38;6.10;99.90
17489;DHT22;8861;52.644;4.734;2024-03-02T05:11:05;6.00;99.90
17489;DHT22;8861;52.644;4.734;2024-03-02T05:13:47;6.00;99.90
17489;DHT22;8861;52.644;4.734;2024-03-02T05:16:14;5.90;99.90
17489;DHT22;8861;52.644;4.734;2024-03-02T05:18:41;5.90;99.90
17489;DHT22;8861;52.644;4.734;2024-03-02T05:21:08;5.90;99.90
17489;DHT22;8861;52.644;4.734;2024-03-02T05:23:35;5.90;99.90
17489;DHT22;8861;52.644;4.734;2024-03-02T05:26:03;5.90;99.90
17489;DHT22;8861;52.644;4.734;2024-03-02T05:28:30;5.90;99.90
17489;DHT22;8861;52.644;4.734;2024-03-02T05:30:58;5.90;99.90
17489;DHT22;8861;52.644;4.734;2024-03-02T05:33:25;5.80;99.90
17489;DHT22;8861;52.644;4.734;2024-03-02T05:35:52;5.80;99.90
17489;DHT22;8861;52.644;4.734;2024-03-02T05:38:19;5.80;99.90
17489;DHT22;8861;52.644;4.734;2024-03-02T05:40:47;5.80;99.90
17489;DHT22;8861;52.644;4.734;2024-03-02T05:43:14;5.80;99.90
17489;DHT22;8861;52.644;4.734;2024-03-02T05:45:41;5.80;99.90
17489;DHT22;8861;52.644;4.734;2024-03-02T05:48:10;5.80;99.90
17489;DHT22;8861;52.644;4.734;2024-03-02T05:50:36;5.80;99.90
17489;DHT22;8861;52.644;4.734;2024-03-02T05:53:04;5.70;99.90
17489;DHT22;8861;52.644;4.734;2024-03-02T05:55:31;5.70;99.90
17489;DHT22;8861;52.644;4.734;2024-03-02T05:57:58;5.70;99.90
17489;DHT22;8861;52.644;4.734;2024-03-02T06:00:41;5.70;99.90
17489;DHT22;8861;52.644;4.734;2024-03-02T06:03:09;5.60;99.90
17489;DHT22;8861;52.644;4.734;2024-03-02T06:05:36;5.70;99.90
17489;DHT22;8861;52.644;4.734;2024-03-02T06:08:04;5.70;99.90
17489;DHT22;8861;52.644;4.734;2024-03-02T06:10:31;5.80;99.90
17489;DHT22;8861;52.644;4.734;2024-03-02T06:12:58;5.90;99.90
17489;DHT22;8861;52.644;4.734;2024-03-02T06:15:26;6.00;99.90
17489;DHT22;8861;52.644;4.734;2024-03-02T06:17:53;6.10;99.90
17489;DHT22;8861;52.644;4.734;2024-03-02T06:20:22;6.10;99.90
17489;DHT22;8861;52.644;4.734;2024-03-02T06:22:49;6.20;99.90
17489;DHT22;8861;52.644;4.734;2024-03-02T06:25:16;6.30;99.90
17489;DHT22;8861;52.644;4.734;2024-03-02T06:27:43;6.30;99.90
17489;DHT22;8861;52.644;4.734;2024-03-02T06:30:11;6.30;99.90
17489;DHT22;8861;52.644;4.734;2024-03-02T06:32:38;6.30;99.90
17489;DHT22;8861;52.644;4.734;2024-03-02T06:35:06;6.40;99.90
17489;DHT22;8861;52.644;4.734;2024-03-02T06:37:38;6.40;99.90
17489;DHT22;8861;52.644;4.734;2024-03-02T06:40:07;6.40;99.90
17489;DHT22;8861;52.644;4.734;2024-03-02T06:42:34;6.50;99.90
17489;DHT22;8861;52.644;4.734;2024-03-02T06:45:01;6.50;99.90
17489;DHT22;8861;52.644;4.734;2024-03-02T06:47:28;6.50;99.90
17489;DHT22;8861;52.644;4.734;2024-03-02T06:49:55;6.50;99.90
17489;DHT22;8861;52.644;4.734;2024-03-02T06:52:23;6.50;99.90
17489;DHT22;8861;52.644;4.734;2024-03-02T06:54:54;6.50;99.90
17489;DHT22;8861;52.644;4.734;2024-03-02T06:57:30;6.50;99.90
17489;DHT22;8861;52.644;4.734;2024-03-02T07:00:08;6.40;99.90
17489;DHT22;8861;52.644;4.734;2024-03-02T07:02:38;6.40;99.90
17489;DHT22;8861;52.644;4.734;2024-03-02T07:05:07;6.40;99.90
17489;DHT22;8861;52.644;4.734;2024-03-02T07:07:35;6.30;99.90
17489;DHT22;8861;52.644;4.734;2024-03-02T07:10:04;6.40;99.90
17489;DHT22;8861;52.644;4.734;2024-03-02T07:12:32;6.40;99.90
17489;DHT22;8861;52.644;4.734;2024-03-02T07:15:00;6.40;99.90
17489;DHT22;8861;52.644;4.734;2024-03-02T07:17:46;6.40;99.90
17489;DHT22;8861;52.644;4.734;2024-03-02T07:20:13;6.50;99.90
17489;DHT22;8861;52.644;4.734;2024-03-02T07:22:40;6.60;99.90
17489;DHT22;8861;52.644;4.734;2024-03-02T07:25:09;6.60;99.90
17489;DHT22;8861;52.644;4.734;2024-03-02T07:27:36;6.60;99.90
17489;DHT22;8861;52.644;4.734;2024-03-02T07:30:03;6.50;99.90
17489;DHT22;8861;52.644;4.734;2024-03-02T07:32:30;6.50;99.90
17489;DHT22;8861;52.644;4.734;2024-03-02T07:34:57;6.60;99.90
17489;DHT22;8861;52.644;4.734;2024-03-02T07:37:26;6.70;99.90
17489;DHT22;8861;52.644;4.734;2024-03-02T07:39:53;6.70;99.90
17489;DHT22;8861;52.644;4.734;2024-03-02T07:42:21;6.80;99.90
17489;DHT22;8861;52.644;4.734;2024-03-02T07:44:48;6.80;99.90
17489;DHT22;8861;52.644;4.734;2024-03-02T07:47:16;6.90;99.90
17489;DHT22;8861;52.644;4.734;2024-03-02T07:49:44;7.00;99.90
17489;DHT22;8861;52.644;4.734;2024-03-02T07:52:11;7.10;99.90
17489;DHT22;8861;52.644;4.734;2024-03-02T07:54:38;7.10;99.90
17489;DHT22;8861;52.644;4.734;2024-03-02T07:57:05;7.20;99.90
17489;DHT22;8861;52.644;4.734;2024-03-02T07:59:34;7.20;99.90
17489;DHT22;8861;52.644;4.734;2024-03-02T08:02:01;7.20;99.90
17489;DHT22;8861;52.644;4.734;2024-03-02T08:04:28;7.20;99.90
17489;DHT22;8861;52.644;4.734;2024-03-02T08:06:55;7.20;99.90
17489;DHT22;8861;52.644;4.734;2024-03-02T08:09:22;7.30;99.90
17489;DHT22;8861;52.644;4.734;2024-03-02T08:11:49;7.30;99.90
17489;DHT22;8861;52.644;4.734;2024-03-02T08:14:19;7.40;99.90
17489;DHT22;8861;52.644;4.734;2024-03-02T08:16:48;7.40;99.90
17489;DHT22;8861;52.644;4.734;2024-03-02T08:19:15;7.40;99.90
17489;DHT22;8861;52.644;4.734;2024-03-02T08:21:42;7.40;99.90
17489;DHT22;8861;52.644;4.734;2024-03-02T08:24:10;7.40;99.90
17489;DHT22;8861;52.644;4.734;2024-03-02T08:26:37;7.40;99.90
17489;DHT22;8861;52.644;4.734;2024-03-02T08:29:04;7.30;99.90
17489;DHT22;8861;52.644;4.734;2024-03-02T08:31:31;7.30;99.90
17489;DHT22;8861;52.644;4.734;2024-03-02T08:33:59;7.30;99.90
17489;DHT22;8861;52.644;4.734;2024-03-02T08:36:26;7.30;99.90
17489;DHT22;8861;52.644;4.734;2024-03-02T08:38:53;7.30;99.90
17489;DHT22;8861;52.644;4.734;2024-03-02T08:41:20;7.30;99.90
17489;DHT22;8861;52.644;4.734;2024-03-02T08:43:47;7.30;99.90
17489;DHT22;8861;52.644;4.734;2024-03-02T08:46:14;7.30;99.90
17489;DHT22;8861;52.644;4.734;2024-03-02T08:48:41;7.40;99.90
17489;DHT22;8861;52.644;4.734;2024-03-02T08:51:10;7.50;99.90
17489;DHT22;8861;52.644;4.734;2024-03-02T08:53:36;7.60;99.90
17489;DHT22;8861;52.644;4.734;2024-03-02T08:56:04;7.70;99.90
17489;DHT22;8861;52.644;4.734;2024-03-02T08:58:32;7.60;99.90
17489;DHT22;8861;52.644;4.734;2024-03-02T09:00:59;7.60;99.90
17489;DHT22;8861;52.644;4.734;2024-03-02T09:03:26;7.70;99.90
17489;DHT22;8861;52.644;4.734;2024-03-02T09:05:53;7.80;99.90
17489;DHT22;8861;52.644;4.734;2024-03-02T09:08:22;7.80;99.90
17489;DHT22;8861;52.644;4.734;2024-03-02T09:10:49;7.90;99.90
17489;DHT22;8861;52.644;4.734;2024-03-02T09:13:16;7.90;99.90
17489;DHT22;8861;52.644;4.734;2024-03-02T09:15:43;8.00;99.90
17489;DHT22;8861;52.644;4.734;2024-03-02T09:18:10;7.90;99.90
17489;DHT22;8861;52.644;4.734;2024-03-02T09:20:37;7.80;99.90
17489;DHT22;8861;52.644;4.734;2024-03-02T09:23:04;7.80;99.90
17489;DHT22;8861;52.644;4.734;2024-03-02T09:25:36;7.70;99.90
17489;DHT22;8861;52.644;4.734;2024-03-02T09:28:06;7.80;99.90
17489;DHT22;8861;52.644;4.734;2024-03-02T09:30:33;7.80;99.90
17489;DHT22;8861;52.644;4.734;2024-03-02T09:33:00;7.90;99.90
17489;DHT22;8861;52.644;4.734;2024-03-02T09:35:27;7.90;99.90
17489;DHT22;8861;52.644;4.734;2024-03-02T09:37:55;7.90;99.90
17489;DHT22;8861;52.644;4.734;2024-03-02T09:40:23;8.00;99.90
17489;DHT22;8861;52.644;4.734;2024-03-02T09:42:52;8.10;99.90
17489;DHT22;8861;52.644;4.734;2024-03-02T09:45:23;8.10;99.90
17489;DHT22;8861;52.644;4.734;2024-03-02T09:47:50;8.20;99.90
17489;DHT22;8861;52.644;4.734;2024-03-02T09:50:17;8.30;99.90
17489;DHT22;8861;52.644;4.734;2024-03-02T09:52:51;8.30;99.90
17489;DHT22;8861;52.644;4.734;2024-03-02T09:55:20;8.30;99.90
17489;DHT22;8861;52.644;4.734;2024-03-02T09:57:47;8.40;99.90
17489;DHT22;8861;52.644;4.734;2024-03-02T10:00:18;8.40;99.90
17489;DHT22;8861;52.644;4.734;2024-03-02T10:02:45;8.40;99.90
17489;DHT22;8861;52.644;4.734;2024-03-02T10:05:23;8.40;99.90
17489;DHT22;8861;52.644;4.734;2024-03-02T10:07:58;8.40;99.90
17489;DHT22;8861;52.644;4.734;2024-03-02T10:10:34;8.40;99.90
17489;DHT22;8861;52.644;4.734;2024-03-02T10:13:06;8.50;99.90
17489;DHT22;8861;52.644;4.734;2024-03-02T10:15:36;8.60;99.90
17489;DHT22;8861;52.644;4.734;2024-03-02T10:18:08;8.60;99.90
17489;DHT22;8861;52.644;4.734;2024-03-02T10:20:37;8.70;99.90
17489;DHT22;8861;52.644;4.734;2024-03-02T10:23:11;8.80;99.90
17489;DHT22;8861;52.644;4.734;2024-03-02T10:25:38;8.80;99.90
17489;DHT22;8861;52.644;4.734;2024-03-02T10:28:05;8.90;99.90
17489;DHT22;8861;52.644;4.734;2024-03-02T10:30:39;8.90;99.90
17489;DHT22;8861;52.644;4.734;2024-03-02T10:33:06;8.80;99.90
17489;DHT22;8861;52.644;4.734;2024-03-02T10:35:34;8.80;99.90
17489;DHT22;8861;52.644;4.734;2024-03-02T10:38:03;8.80;99.90
17489;DHT22;8861;52.644;4.734;2024-03-02T10:40:31;8.80;99.90
17489;DHT22;8861;52.644;4.734;2024-03-02T10:42:59;8.90;99.90
17489;DHT22;8861;52.644;4.734;2024-03-02T10:45:28;9.00;99.90
17489;DHT22;8861;52.644;4.734;2024-03-02T10:47:58;9.10;99.90
17489;DHT22;8861;52.644;4.734;2024-03-02T10:50:28;9.10;99.90
17489;DHT22;8861;52.644;4.734;2024-03-02T10:52:55;9.30;99.90
17489;DHT22;8861;52.644;4.734;2024-03-02T10:55:22;9.30;99.90
17489;DHT22;8861;52.644;4.734;2024-03-02T10:57:52;9.30;99.90
17489;DHT22;8861;52.644;4.734;2024-03-02T11:00:20;9.30;99.90
17489;DHT22;8861;52.644;4.734;2024-03-02T11:02:58;9.40;99.90
17489;DHT22;8861;52.644;4.734;2024-03-02T11:05:38;9.50;99.90
17489;DHT22;8861;52.644;4.734;2024-03-02T11:08:07;9.50;99.90
17489;DHT22;8861;52.644;4.734;2024-03-02T11:10:37;9.60;99.90
17489;DHT22;8861;52.644;4.734;2024-03-02T11:13:05;9.70;99.90
17489;DHT22;8861;52.644;4.734;2024-03-02T11:15:37;9.70;99.90
17489;DHT22;8861;52.644;4.734;2024-03-02T11:18:12;9.80;99.90
17489;DHT22;8861;52.644;4.734;2024-03-02T11:20:40;9.80;99.90
17489;DHT22;8861;52.644;4.734;2024-03-02T11:23:09;9.90;99.90
17489;DHT22;8861;52.644;4.734;2024-03-02T11:25:38;10.00;99.90
17489;DHT22;8861;52.644;4.734;2024-03-02T11:28:06;10.00;99.90
17489;DHT22;8861;52.644;4.734;2024-03-02T11:30:56;10.10;99.90
17489;DHT22;8861;52.644;4.734;2024-03-02T11:33:28;10.10;99.90
17489;DHT22;8861;52.644;4.734;2024-03-02T11:35:57;10.00;99.90
17489;DHT22;8861;52.644;4.734;2024-03-02T11:38:29;10.00;99.90
17489;DHT22;8861;52.644;4.734;2024-03-02T11:40:59;10.00;99.90
17489;DHT22;8861;52.644;4.734;2024-03-02T11:43:28;10.00;99.90
17489;DHT22;8861;52.644;4.734;2024-03-02T11:45:58;10.00;99.90
17489;DHT22;8861;52.644;4.734;2024-03-02T11:48:35;10.10;99.90
17489;DHT22;8861;52.644;4.734;2024-03-02T11:51:02;10.20;99.90
17489;DHT22;8861;52.644;4.734;2024-03-02T11:53:30;10.20;99.90
17489;DHT22;8861;52.644;4.734;2024-03-02T11:55:59;10.30;99.90
17489;DHT22;8861;52.644;4.734;2024-03-02T11:58:27;10.40;99.90
17489;DHT22;8861;52.644;4.734;2024-03-02T12:00:55;10.50;99.90
17489;DHT22;8861;52.644;4.734;2024-03-02T12:03:24;10.60;99.90
17489;DHT22;8861;52.644;4.734;2024-03-02T12:05:54;10.70;99.90
17489;DHT22;8861;52.644;4.734;2024-03-02T12:08:21;10.70;99.90
17489;DHT22;8861;52.644;4.734;2024-03-02T12:10:59;10.80;99.90
17489;DHT22;8861;52.644;4.734;2024-03-02T12:13:28;10.90;99.90
17489;DHT22;8861;52.644;4.734;2024-03-02T12:15:59;11.00;99.90
17489;DHT22;8861;52.644;4.734;2024-03-02T12:18:26;11.00;99.90
17489;DHT22;8861;52.644;4.734;2024-03-02T12:20:55;11.00;99.90
17489;DHT22;8861;52.644;4.734;2024-03-02T12:23:24;11.00;99.90
17489;DHT22;8861;52.644;4.734;2024-03-02T12:25:51;11.10;99.90
17489;DHT22;8861;52.644;4.734;2024-03-02T12:28:19;11.20;99.90
17489;DHT22;8861;52.644;4.734;2024-03-02T12:30:47;11.30;99.90
17489;DHT22;8861;52.644;4.734;2024-03-02T12:33:17;11.40;99.90
17489;DHT22;8861;52.644;4.734;2024-03-02T12:35:44;11.50;99.90
17489;DHT22;8861;52.644;4.734;2024-03-02T12:38:12;11.60;99.90
17489;DHT22;8861;52.644;4.734;2024-03-02T12:40:41;11.70;99.90
17489;DHT22;8861;52.644;4.734;2024-03-02T12:43:08;11.70;99.90
17489;DHT22;8861;52.644;4.734;2024-03-02T12:45:36;11.60;99.90
17489;DHT22;8861;52.644;4.734;2024-03-02T12:48:08;11.60;99.90
17489;DHT22;8861;52.644;4.734;2024-03-02T12:50:35;11.80;99.90
17489;DHT22;8861;52.644;4.734;2024-03-02T12:53:03;11.90;99.90
17489;DHT22;8861;52.644;4.734;2024-03-02T12:55:32;12.00;99.90
17489;DHT22;8861;52.644;4.734;2024-03-02T12:58:00;12.10;99.90
17489;DHT22;8861;52.644;4.734;2024-03-02T13:00:28;12.00;99.90
17489;DHT22;8861;52.644;4.734;2024-03-02T13:02:59;12.10;99.90
17489;DHT22;8861;52.644;4.734;2024-03-02T13:05:30;12.20;99.90
17489;DHT22;8861;52.644;4.734;2024-03-02T13:07:58;12.20;99.90
17489;DHT22;8861;52.644;4.734;2024-03-02T13:10:27;12.30;99.90
17489;DHT22;8861;52.644;4.734;2024-03-02T13:12:56;12.20;99.90
17489;DHT22;8861;52.644;4.734;2024-03-02T13:15:40;12.20;99.90
17489;DHT22;8861;52.644;4.734;2024-03-02T13:18:08;12.30;99.90
17489;DHT22;8861;52.644;4.734;2024-03-02T13:20:39;12.40;99.90
17489;DHT22;8861;52.644;4.734;2024-03-02T13:23:10;12.40;99.90
17489;DHT22;8861;52.644;4.734;2024-03-02T13:25:37;12.40;99.90
17489;DHT22;8861;52.644;4.734;2024-03-02T13:28:06;12.40;99.90
17489;DHT22;8861;52.644;4.734;2024-03-02T13:30:34;12.50;99.90
17489;DHT22;8861;52.644;4.734;2024-03-02T13:33:01;12.60;99.90
17489;DHT22;8861;52.644;4.734;2024-03-02T13:35:28;12.60;99.90
17489;DHT22;8861;52.644;4.734;2024-03-02T13:37:55;12.70;99.90
17489;DHT22;8861;52.644;4.734;2024-03-02T13:40:22;12.80;99.90
17489;DHT22;8861;52.644;4.734;2024-03-02T13:42:49;12.80;99.90
17489;DHT22;8861;52.644;4.734;2024-03-02T13:45:21;12.90;99.90
17489;DHT22;8861;52.644;4.734;2024-03-02T13:47:48;13.00;99.90
17489;DHT22;8861;52.644;4.734;2024-03-02T13:50:16;13.00;99.90
17489;DHT22;8861;52.644;4.734;2024-03-02T13:52:48;13.20;99.90
17489;DHT22;8861;52.644;4.734;2024-03-02T13:55:15;13.40;99.90
17489;DHT22;8861;52.644;4.734;2024-03-02T13:57:42;13.60;99.90
17489;DHT22;8861;52.644;4.734;2024-03-02T14:00:10;13.60;99.90
17489;DHT22;8861;52.644;4.734;2024-03-02T14:02:39;13.50;99.90
17489;DHT22;8861;52.644;4.734;2024-03-02T14:05:07;13.50;99.90
17489;DHT22;8861;52.644;4.734;2024-03-02T14:07:38;13.70;99.90
17489;DHT22;8861;52.644;4.734;2024-03-02T14:10:05;13.70;99.90
17489;DHT22;8861;52.644;4.734;2024-03-02T14:12:32;13.50;99.90
17489;DHT22;8861;52.644;4.734;2024-03-02T14:14:59;13.30;99.90
17489;DHT22;8861;52.644;4.734;2024-03-02T14:17:28;13.10;99.90
17489;DHT22;8861;52.644;4.734;2024-03-02T14:19:59;13.00;99.90
17489;DHT22;8861;52.644;4.734;2024-03-02T14:22:26;13.00;99.90
17489;DHT22;8861;52.644;4.734;2024-03-02T14:24:55;13.00;99.90
17489;DHT22;8861;52.644;4.734;2024-03-02T14:27:22;12.90;99.90
17489;DHT22;8861;52.644;4.734;2024-03-02T14:29:51;12.80;99.90
17489;DHT22;8861;52.644;4.734;2024-03-02T14:32:18;12.70;99.90
17489;DHT22;8861;52.644;4.734;2024-03-02T14:34:45;12.60;99.90
17489;DHT22;8861;52.644;4.734;2024-03-02T14:37:34;12.60;99.90
17489;DHT22;8861;52.644;4.734;2024-03-02T14:40:01;12.60;99.90
17489;DHT22;8861;52.644;4.734;2024-03-02T14:42:32;12.60;99.90
17489;DHT22;8861;52.644;4.734;2024-03-02T14:45:08;12.70;99.90
17489;DHT22;8861;52.644;4.734;2024-03-02T14:47:35;12.70;99.90
17489;DHT22;8861;52.644;4.734;2024-03-02T14:50:05;12.80;99.90
17489;DHT22;8861;52.644;4.734;2024-03-02T14:52:34;12.80;99.90
17489;DHT22;8861;52.644;4.734;2024-03-02T14:55:01;12.70;99.90
17489;DHT22;8861;52.644;4.734;2024-03-02T14:57:29;12.60;99.90
17489;DHT22;8861;52.644;4.734;2024-03-02T14:59:57;12.70;99.90
17489;DHT22;8861;52.644;4.734;2024-03-02T15:02:25;12.80;99.90
17489;DHT22;8861;52.644;4.734;2024-03-02T15:04:54;12.90;99.90
17489;DHT22;8861;52.644;4.734;2024-03-02T15:07:21;13.20;99.90
17489;DHT22;8861;52.644;4.734;2024-03-02T15:09:49;13.30;99.90
17489;DHT22;8861;52.644;4.734;2024-03-02T15:12:17;13.40;99.90
17489;DHT22;8861;52.644;4.734;2024-03-02T15:14:44;13.40;99.90
17489;DHT22;8861;52.644;4.734;2024-03-02T15:17:13;13.40;99.90
17489;DHT22;8861;52.644;4.734;2024-03-02T15:19:42;13.50;99.90
17489;DHT22;8861;52.644;4.734;2024-03-02T15:22:10;13.50;99.90
17489;DHT22;8861;52.644;4.734;2024-03-02T15:24:37;13.50;99.90
17489;DHT22;8861;52.644;4.734;2024-03-02T15:27:06;13.40;99.90
17489;DHT22;8861;52.644;4.734;2024-03-02T15:29:34;13.20;99.90
17489;DHT22;8861;52.644;4.734;2024-03-02T15:32:01;13.10;99.90
17489;DHT22;8861;52.644;4.734;2024-03-02T15:34:31;13.00;99.90
17489;DHT22;8861;52.644;4.734;2024-03-02T15:36:58;12.80;99.90
17489;DHT22;8861;52.644;4.734;2024-03-02T15:39:26;12.60;99.90
17489;DHT22;8861;52.644;4.734;2024-03-02T15:42:01;12.40;99.90
17489;DHT22;8861;52.644;4.734;2024-03-02T15:44:31;12.40;99.90
17489;DHT22;8861;52.644;4.734;2024-03-02T15:46:59;12.30;99.90
17489;DHT22;8861;52.644;4.734;2024-03-02T15:49:26;12.30;99.90
17489;DHT22;8861;52.644;4.734;2024-03-02T15:51:54;12.30;99.90
17489;DHT22;8861;52.644;4.734;2024-03-02T15:54:21;12.30;99.90
17489;DHT22;8861;52.644;4.734;2024-03-02T15:56:48;12.30;99.90
17489;DHT22;8861;52.644;4.734;2024-03-02T15:59:15;12.30;99.90
17489;DHT22;8861;52.644;4.734;2024-03-02T16:01:43;12.30;99.90
17489;DHT22;8861;52.644;4.734;2024-03-02T16:04:10;12.40;99.90
17489;DHT22;8861;52.644;4.734;2024-03-02T16:06:37;12.40;99.90